sensor_id;sensor_type;location;lat;lon;timestamp;P1;durP1;ratioP1;P2;durP2;ratioP2
68455;SDS011;55437;55.046;38.838;2023-11-18T00:01:32;9.30;;;4.20;;
68455;SDS011;55437;55.046;38.838;2023-11-18T00:03:59;9.23;;;4.38;;
68455;SDS011;55437;55.046;38.838;2023-11-18T00:06:28;11.48;;;5.43;;
68455;SDS011;55437;55.046;38.838;2023-11-18T00:08:54;12.00;;;5.32;;
68455;SDS011;55437;55.046;38.838;2023-11-18T00:11:20;9.20;;;5.78;;
68455;SDS011;55437;55.046;38.838;2023-11-18T00:13:46;9.20;;;4.20;;
68455;SDS011;55437;55.046;38.838;2023-11-18T00:16:12;9.90;;;4.30;;
68455;SDS011;55437;55.046;38.838;2023-11-18T00:18:42;11.50;;;6.03;;
68455;SDS011;55437;55.046;38.838;2023-11-18T00:21:08;11.23;;;4.80;;
68455;SDS011;55437;55.046;38.838;2023-11-18T00:23:34;12.35;;;4.97;;
68455;SDS011;55437;55.046;38.838;2023-11-18T00:26:00;10.93;;;4.25;;
68455;SDS011;55437;55.046;38.838;2023-11-18T00:28:27;11.45;;;5.53;;
68455;SDS011;55437;55.046;38.838;2023-11-18T00:30:53;9.95;;;3.95;;
68455;SDS011;55437;55.046;38.838;2023-11-18T00:33:19;11.77;;;5.90;;
68455;SDS011;55437;55.046;38.838;2023-11-18T00:35:45;17.13;;;6.78;;
68455;SDS011;55437;55.046;38.838;2023-11-18T00:38:11;15.45;;;6.45;;
68455;SDS011;55437;55.046;38.838;2023-11-18T00:40:37;16.08;;;7.38;;
68455;SDS011;55437;55.046;38.838;2023-11-18T00:43:03;13.63;;;6.57;;
68455;SDS011;55437;55.046;38.838;2023-11-18T00:45:29;14.00;;;6.95;;
68455;SDS011;55437;55.046;38.838;2023-11-18T00:47:57;14.45;;;6.57;;
68455;SDS011;55437;55.046;38.838;2023-11-18T00:50:24;15.43;;;7.03;;
68455;SDS011;55437;55.046;38.838;2023-11-18T00:52:49;15.68;;;6.22;;
68455;SDS011;55437;55.046;38.838;2023-11-18T00:55:16;12.52;;;6.20;;
68455;SDS011;55437;55.046;38.838;2023-11-18T00:57:45;9.98;;;5.07;;
68455;SDS011;55437;55.046;38.838;2023-11-18T01:00:13;10.35;;;4.85;;
68455;SDS011;55437;55.046;38.838;2023-11-18T01:02:42;12.50;;;5.60;;
68455;SDS011;55437;55.046;38.838;2023-11-18T01:05:09;11.45;;;4.70;;
68455;SDS011;55437;55.046;38.838;2023-11-18T01:07:37;10.40;;;4.93;;
68455;SDS011;55437;55.046;38.838;2023-11-18T01:10:04;13.20;;;5.82;;
68455;SDS011;55437;55.046;38.838;2023-11-18T01:12:32;13.13;;;5.53;;
68455;SDS011;55437;55.046;38.838;2023-11-18T01:14:59;12.38;;;7.47;;
68455;SDS011;55437;55.046;38.838;2023-11-18T01:17:26;10.95;;;5.07;;
68455;SDS011;55437;55.046;38.838;2023-11-18T01:19:52;17.00;;;7.50;;
68455;SDS011;55437;55.046;38.838;2023-11-18T01:22:18;11.43;;;5.85;;
68455;SDS011;55437;55.046;38.838;2023-11-18T01:24:44;10.05;;;4.60;;
68455;SDS011;55437;55.046;38.838;2023-11-18T01:27:11;13.70;;;4.78;;
68455;SDS011;55437;55.046;38.838;2023-11-18T01:29:39;11.77;;;4.20;;
68455;SDS011;55437;55.046;38.838;2023-11-18T01:32:05;13.00;;;4.70;;
68455;SDS011;55437;55.046;38.838;2023-11-18T01:34:35;12.93;;;4.53;;
68455;SDS011;55437;55.046;38.838;2023-11-18T01:37:04;10.70;;;4.68;;
68455;SDS011;55437;55.046;38.838;2023-11-18T01:39:34;11.88;;;4.75;;
68455;SDS011;55437;55.046;38.838;2023-11-18T01:42:02;13.07;;;4.57;;
68455;SDS011;55437;55.046;38.838;2023-11-18T01:44:29;12.20;;;5.40;;
68455;SDS011;55437;55.046;38.838;2023-11-18T01:46:57;11.32;;;4.32;;
68455;SDS011;55437;55.046;38.838;2023-11-18T01:49:24;10.55;;;4.68;;
68455;SDS011;55437;55.046;38.838;2023-11-18T01:51:55;14.73;;;7.15;;
68455;SDS011;55437;55.046;38.838;2023-11-18T01:54:22;15.85;;;4.70;;
68455;SDS011;55437;55.046;38.838;2023-11-18T01:56:51;11.10;;;4.22;;
68455;SDS011;55437;55.046;38.838;2023-11-18T01:59:18;17.13;;;7.25;;
68455;SDS011;55437;55.046;38.838;2023-11-18T02:01:46;19.25;;;5.50;;
68455;SDS011;55437;55.046;38.838;2023-11-18T02:04:15;11.15;;;4.53;;
68455;SDS011;55437;55.046;38.838;2023-11-18T02:06:42;13.25;;;4.97;;
68455;SDS011;55437;55.046;38.838;2023-11-18T02:09:10;16.52;;;5.97;;
68455;SDS011;55437;55.046;38.838;2023-11-18T02:11:43;15.07;;;4.35;;
68455;SDS011;55437;55.046;38.838;2023-11-18T02:14:18;14.38;;;4.95;;
68455;SDS011;55437;55.046;38.838;2023-11-18T02:16:46;12.98;;;5.70;;
68455;SDS011;55437;55.046;38.838;2023-11-18T02:19:24;15.93;;;5.05;;
68455;SDS011;55437;55.046;38.838;2023-11-18T02:21:54;16.02;;;4.78;;
68455;SDS011;55437;55.046;38.838;2023-11-18T02:24:31;12.02;;;4.35;;
68455;SDS011;55437;55.046;38.838;2023-11-18T02:27:03;15.80;;;6.60;;
68455;SDS011;55437;55.046;38.838;2023-11-18T02:29:38;18.67;;;5.32;;
68455;SDS011;55437;55.046;38.838;2023-11-18T02:34:58;15.55;;;5.30;;
68455;SDS011;55437;55.046;38.838;2023-11-18T02:37:39;16.30;;;5.15;;
68455;SDS011;55437;55.046;38.838;2023-11-18T02:40:09;15.63;;;5.85;;
68455;SDS011;55437;55.046;38.838;2023-11-18T02:42:43;20.15;;;5.82;;
68455;SDS011;55437;55.046;38.838;2023-11-18T02:47:38;15.18;;;5.68;;
68455;SDS011;55437;55.046;38.838;2023-11-18T02:50:05;18.13;;;5.55;;
68455;SDS011;55437;55.046;38.838;2023-11-18T02:52:36;14.90;;;8.32;;
68455;SDS011;55437;55.046;38.838;2023-11-18T02:55:06;16.27;;;6.47;;
68455;SDS011;55437;55.046;38.838;2023-11-18T02:57:34;15.23;;;6.75;;
68455;SDS011;55437;55.046;38.838;2023-11-18T03:00:00;19.35;;;6.07;;
68455;SDS011;55437;55.046;38.838;2023-11-18T03:02:29;17.25;;;6.75;;
68455;SDS011;55437;55.046;38.838;2023-11-18T03:04:56;20.33;;;6.53;;
68455;SDS011;55437;55.046;38.838;2023-11-18T03:07:24;21.20;;;6.82;;
68455;SDS011;55437;55.046;38.838;2023-11-18T03:09:49;25.25;;;8.60;;
68455;SDS011;55437;55.046;38.838;2023-11-18T03:12:15;20.63;;;7.63;;
68455;SDS011;55437;55.046;38.838;2023-11-18T03:14:41;16.80;;;6.78;;
68455;SDS011;55437;55.046;38.838;2023-11-18T03:17:08;22.05;;;7.95;;
68455;SDS011;55437;55.046;38.838;2023-11-18T03:19:35;16.92;;;6.82;;
68455;SDS011;55437;55.046;38.838;2023-11-18T03:22:02;19.98;;;7.13;;
68455;SDS011;55437;55.046;38.838;2023-11-18T03:24:28;22.23;;;8.63;;
68455;SDS011;55437;55.046;38.838;2023-11-18T03:26:55;20.83;;;7.35;;
68455;SDS011;55437;55.046;38.838;2023-11-18T03:29:21;28.65;;;8.20;;
68455;SDS011;55437;55.046;38.838;2023-11-18T03:31:48;19.33;;;8.60;;
68455;SDS011;55437;55.046;38.838;2023-11-18T03:34:15;20.77;;;8.23;;
68455;SDS011;55437;55.046;38.838;2023-11-18T03:36:44;20.20;;;7.85;;
68455;SDS011;55437;55.046;38.838;2023-11-18T03:39:12;24.77;;;11.07;;
68455;SDS011;55437;55.046;38.838;2023-11-18T03:41:39;17.23;;;8.25;;
68455;SDS011;55437;55.046;38.838;2023-11-18T03:44:12;20.42;;;8.70;;
68455;SDS011;55437;55.046;38.838;2023-11-18T03:46:38;19.23;;;8.27;;
68455;SDS011;55437;55.046;38.838;2023-11-18T03:51:56;26.40;;;8.68;;
68455;SDS011;55437;55.046;38.838;2023-11-18T03:54:22;23.73;;;8.35;;
68455;SDS011;55437;55.046;38.838;2023-11-18T03:56:48;24.30;;;9.55;;
68455;SDS011;55437;55.046;38.838;2023-11-18T03:59:14;21.10;;;8.30;;
68455;SDS011;55437;55.046;38.838;2023-11-18T04:01:40;20.33;;;7.60;;
68455;SDS011;55437;55.046;38.838;2023-11-18T04:04:06;23.48;;;7.68;;
68455;SDS011;55437;55.046;38.838;2023-11-18T04:06:32;19.42;;;7.00;;
68455;SDS011;55437;55.046;38.838;2023-11-18T04:08:58;16.83;;;6.68;;
68455;SDS011;55437;55.046;38.838;2023-11-18T04:11:25;16.90;;;6.85;;
68455;SDS011;55437;55.046;38.838;2023-11-18T04:13:50;21.77;;;8.02;;
68455;SDS011;55437;55.046;38.838;2023-11-18T04:16:16;17.10;;;8.77;;
68455;SDS011;55437;55.046;38.838;2023-11-18T04:18:43;16.90;;;7.00;;
68455;SDS011;55437;55.046;38.838;2023-11-18T04:21:11;23.02;;;7.82;;
68455;SDS011;55437;55.046;38.838;2023-11-18T04:23:39;22.50;;;7.07;;
68455;SDS011;55437;55.046;38.838;2023-11-18T04:26:06;22.55;;;7.85;;
68455;SDS011;55437;55.046;38.838;2023-11-18T04:28:33;20.35;;;8.25;;
68455;SDS011;55437;55.046;38.838;2023-11-18T04:31:00;16.42;;;7.47;;
68455;SDS011;55437;55.046;38.838;2023-11-18T04:33:26;21.50;;;8.50;;
68455;SDS011;55437;55.046;38.838;2023-11-18T04:35:52;24.05;;;8.65;;
68455;SDS011;55437;55.046;38.838;2023-11-18T04:38:18;24.30;;;9.82;;
68455;SDS011;55437;55.046;38.838;2023-11-18T04:40:45;17.55;;;7.28;;
68455;SDS011;55437;55.046;38.838;2023-11-18T04:43:14;20.60;;;7.78;;
68455;SDS011;55437;55.046;38.838;2023-11-18T04:45:40;16.63;;;6.38;;
68455;SDS011;55437;55.046;38.838;2023-11-18T04:48:09;17.42;;;7.35;;
68455;SDS011;55437;55.046;38.838;2023-11-18T04:50:35;17.38;;;6.13;;
68455;SDS011;55437;55.046;38.838;2023-11-18T04:53:01;19.58;;;6.75;;
68455;SDS011;55437;55.046;38.838;2023-11-18T04:55:28;17.15;;;6.70;;
68455;SDS011;55437;55.046;38.838;2023-11-18T04:57:54;20.75;;;6.65;;
68455;SDS011;55437;55.046;38.838;2023-11-18T05:00:21;17.35;;;6.53;;
68455;SDS011;55437;55.046;38.838;2023-11-18T05:02:47;16.98;;;7.50;;
68455;SDS011;55437;55.046;38.838;2023-11-18T05:05:13;24.45;;;7.75;;
68455;SDS011;55437;55.046;38.838;2023-11-18T05:07:41;21.85;;;7.28;;
68455;SDS011;55437;55.046;38.838;2023-11-18T05:10:07;16.20;;;6.47;;
68455;SDS011;55437;55.046;38.838;2023-11-18T05:12:35;21.20;;;7.72;;
68455;SDS011;55437;55.046;38.838;2023-11-18T05:15:02;21.13;;;7.22;;
68455;SDS011;55437;55.046;38.838;2023-11-18T05:17:30;18.23;;;7.15;;
68455;SDS011;55437;55.046;38.838;2023-11-18T05:19:56;17.15;;;7.82;;
68455;SDS011;55437;55.046;38.838;2023-11-18T05:22:22;23.52;;;8.70;;
68455;SDS011;55437;55.046;38.838;2023-11-18T05:24:49;26.13;;;8.40;;
68455;SDS011;55437;55.046;38.838;2023-11-18T05:27:14;26.83;;;8.68;;
68455;SDS011;55437;55.046;38.838;2023-11-18T05:29:40;24.25;;;8.13;;
68455;SDS011;55437;55.046;38.838;2023-11-18T05:32:13;20.50;;;8.50;;
68455;SDS011;55437;55.046;38.838;2023-11-18T05:34:39;23.08;;;8.57;;
68455;SDS011;55437;55.046;38.838;2023-11-18T05:37:04;23.08;;;8.95;;
68455;SDS011;55437;55.046;38.838;2023-11-18T05:39:30;31.90;;;9.70;;
68455;SDS011;55437;55.046;38.838;2023-11-18T05:41:57;23.27;;;10.05;;
68455;SDS011;55437;55.046;38.838;2023-11-18T05:44:23;33.70;;;9.35;;
68455;SDS011;55437;55.046;38.838;2023-11-18T05:46:57;18.83;;;8.35;;
68455;SDS011;55437;55.046;38.838;2023-11-18T05:49:23;17.90;;;7.80;;
68455;SDS011;55437;55.046;38.838;2023-11-18T05:51:49;21.00;;;9.32;;
68455;SDS011;55437;55.046;38.838;2023-11-18T05:54:17;20.10;;;7.50;;
68455;SDS011;55437;55.046;38.838;2023-11-18T05:57:01;20.02;;;10.27;;
68455;SDS011;55437;55.046;38.838;2023-11-18T05:59:27;17.77;;;7.45;;
68455;SDS011;55437;55.046;38.838;2023-11-18T06:01:54;19.58;;;7.20;;
68455;SDS011;55437;55.046;38.838;2023-11-18T06:04:22;17.33;;;7.28;;
68455;SDS011;55437;55.046;38.838;2023-11-18T06:06:48;24.90;;;8.25;;
68455;SDS011;55437;55.046;38.838;2023-11-18T06:09:32;17.15;;;6.90;;
68455;SDS011;55437;55.046;38.838;2023-11-18T06:11:59;16.48;;;6.65;;
68455;SDS011;55437;55.046;38.838;2023-11-18T06:14:26;15.52;;;8.13;;
68455;SDS011;55437;55.046;38.838;2023-11-18T06:16:52;13.80;;;6.80;;
68455;SDS011;55437;55.046;38.838;2023-11-18T06:19:18;16.65;;;7.57;;
68455;SDS011;55437;55.046;38.838;2023-11-18T06:21:44;18.65;;;7.90;;
68455;SDS011;55437;55.046;38.838;2023-11-18T06:24:11;16.23;;;6.35;;
68455;SDS011;55437;55.046;38.838;2023-11-18T06:26:39;14.27;;;6.68;;
68455;SDS011;55437;55.046;38.838;2023-11-18T06:29:05;33.38;;;7.97;;
68455;SDS011;55437;55.046;38.838;2023-11-18T06:31:31;18.60;;;7.82;;
68455;SDS011;55437;55.046;38.838;2023-11-18T06:33:59;15.13;;;7.30;;
68455;SDS011;55437;55.046;38.838;2023-11-18T06:36:24;17.77;;;7.53;;
68455;SDS011;55437;55.046;38.838;2023-11-18T06:38:52;15.25;;;7.30;;
68455;SDS011;55437;55.046;38.838;2023-11-18T06:41:20;15.43;;;8.60;;
68455;SDS011;55437;55.046;38.838;2023-11-18T06:43:49;14.95;;;7.25;;
68455;SDS011;55437;55.046;38.838;2023-11-18T06:48:48;13.98;;;5.78;;
68455;SDS011;55437;55.046;38.838;2023-11-18T06:51:15;15.85;;;8.77;;
68455;SDS011;55437;55.046;38.838;2023-11-18T06:53:42;17.73;;;8.95;;
68455;SDS011;55437;55.046;38.838;2023-11-18T06:56:10;15.60;;;6.45;;
68455;SDS011;55437;55.046;38.838;2023-11-18T06:58:39;17.15;;;7.70;;
68455;SDS011;55437;55.046;38.838;2023-11-18T07:01:06;20.02;;;7.75;;
68455;SDS011;55437;55.046;38.838;2023-11-18T07:03:32;14.50;;;7.63;;
68455;SDS011;55437;55.046;38.838;2023-11-18T07:05:58;17.90;;;8.63;;
68455;SDS011;55437;55.046;38.838;2023-11-18T07:08:25;18.23;;;7.70;;
68455;SDS011;55437;55.046;38.838;2023-11-18T07:10:51;19.23;;;8.52;;
68455;SDS011;55437;55.046;38.838;2023-11-18T07:13:17;16.25;;;7.78;;
68455;SDS011;55437;55.046;38.838;2023-11-18T07:15:43;16.00;;;8.15;;
68455;SDS011;55437;55.046;38.838;2023-11-18T07:18:09;18.95;;;7.80;;
68455;SDS011;55437;55.046;38.838;2023-11-18T07:20:35;24.83;;;8.50;;
68455;SDS011;55437;55.046;38.838;2023-11-18T07:23:02;13.68;;;7.22;;
68455;SDS011;55437;55.046;38.838;2023-11-18T07:25:28;16.23;;;9.05;;
68455;SDS011;55437;55.046;38.838;2023-11-18T07:27:54;20.35;;;8.00;;
68455;SDS011;55437;55.046;38.838;2023-11-18T07:30:21;16.17;;;6.97;;
68455;SDS011;55437;55.046;38.838;2023-11-18T07:32:48;19.75;;;8.30;;
68455;SDS011;55437;55.046;38.838;2023-11-18T07:35:14;18.60;;;7.25;;
68455;SDS011;55437;55.046;38.838;2023-11-18T07:37:40;18.77;;;7.90;;
68455;SDS011;55437;55.046;38.838;2023-11-18T07:40:07;15.93;;;6.97;;
68455;SDS011;55437;55.046;38.838;2023-11-18T07:42:33;17.75;;;7.93;;
68455;SDS011;55437;55.046;38.838;2023-11-18T07:45:00;19.00;;;7.70;;
68455;SDS011;55437;55.046;38.838;2023-11-18T07:47:31;21.00;;;7.53;;
68455;SDS011;55437;55.046;38.838;2023-11-18T07:49:58;15.63;;;6.90;;
68455;SDS011;55437;55.046;38.838;2023-11-18T07:52:30;24.20;;;6.93;;
68455;SDS011;55437;55.046;38.838;2023-11-18T07:54:56;13.27;;;6.40;;
68455;SDS011;55437;55.046;38.838;2023-11-18T07:57:22;16.42;;;6.68;;
68455;SDS011;55437;55.046;38.838;2023-11-18T07:59:50;18.52;;;6.82;;
68455;SDS011;55437;55.046;38.838;2023-11-18T08:02:18;17.98;;;6.13;;
68455;SDS011;55437;55.046;38.838;2023-11-18T08:04:45;15.82;;;5.68;;
68455;SDS011;55437;55.046;38.838;2023-11-18T08:07:11;17.00;;;6.30;;
68455;SDS011;55437;55.046;38.838;2023-11-18T08:09:37;14.10;;;6.20;;
68455;SDS011;55437;55.046;38.838;2023-11-18T08:12:05;13.00;;;5.93;;
68455;SDS011;55437;55.046;38.838;2023-11-18T08:14:35;11.45;;;4.88;;
68455;SDS011;55437;55.046;38.838;2023-11-18T08:17:01;11.55;;;4.85;;
68455;SDS011;55437;55.046;38.838;2023-11-18T08:19:27;12.70;;;4.97;;
68455;SDS011;55437;55.046;38.838;2023-11-18T08:21:53;11.23;;;4.97;;
68455;SDS011;55437;55.046;38.838;2023-11-18T08:24:20;15.07;;;5.18;;
68455;SDS011;55437;55.046;38.838;2023-11-18T08:26:49;11.23;;;5.45;;
68455;SDS011;55437;55.046;38.838;2023-11-18T08:29:14;14.07;;;5.53;;
68455;SDS011;55437;55.046;38.838;2023-11-18T08:31:41;12.00;;;4.78;;
68455;SDS011;55437;55.046;38.838;2023-11-18T08:34:09;12.43;;;5.43;;
68455;SDS011;55437;55.046;38.838;2023-11-18T08:36:35;14.32;;;5.22;;
68455;SDS011;55437;55.046;38.838;2023-11-18T08:39:01;11.55;;;5.03;;
68455;SDS011;55437;55.046;38.838;2023-11-18T08:41:27;10.57;;;4.80;;
68455;SDS011;55437;55.046;38.838;2023-11-18T08:43:53;11.23;;;6.28;;
68455;SDS011;55437;55.046;38.838;2023-11-18T08:46:19;10.20;;;4.32;;
68455;SDS011;55437;55.046;38.838;2023-11-18T08:48:45;11.60;;;5.13;;
68455;SDS011;55437;55.046;38.838;2023-11-18T08:51:13;10.43;;;4.50;;
68455;SDS011;55437;55.046;38.838;2023-11-18T08:53:41;11.50;;;4.80;;
68455;SDS011;55437;55.046;38.838;2023-11-18T08:56:08;14.50;;;4.93;;
68455;SDS011;55437;55.046;38.838;2023-11-18T08:58:42;18.02;;;6.47;;
68455;SDS011;55437;55.046;38.838;2023-11-18T09:01:10;12.75;;;5.88;;
68455;SDS011;55437;55.046;38.838;2023-11-18T09:03:40;19.33;;;6.22;;
68455;SDS011;55437;55.046;38.838;2023-11-18T09:06:14;15.52;;;5.22;;
68455;SDS011;55437;55.046;38.838;2023-11-18T09:08:44;14.10;;;4.43;;
68455;SDS011;55437;55.046;38.838;2023-11-18T09:11:12;13.80;;;4.20;;
68455;SDS011;55437;55.046;38.838;2023-11-18T09:13:44;23.23;;;5.78;;
68455;SDS011;55437;55.046;38.838;2023-11-18T09:16:19;13.15;;;4.88;;
68455;SDS011;55437;55.046;38.838;2023-11-18T09:18:50;16.50;;;5.53;;
68455;SDS011;55437;55.046;38.838;2023-11-18T09:21:17;12.82;;;6.28;;
68455;SDS011;55437;55.046;38.838;2023-11-18T09:23:50;22.05;;;5.78;;
68455;SDS011;55437;55.046;38.838;2023-11-18T09:26:17;20.02;;;5.70;;
68455;SDS011;55437;55.046;38.838;2023-11-18T09:28:43;19.35;;;5.72;;
68455;SDS011;55437;55.046;38.838;2023-11-18T09:31:10;20.15;;;8.30;;
68455;SDS011;55437;55.046;38.838;2023-11-18T09:33:40;16.50;;;6.50;;
68455;SDS011;55437;55.046;38.838;2023-11-18T09:39:10;15.23;;;5.30;;
68455;SDS011;55437;55.046;38.838;2023-11-18T09:41:55;12.13;;;4.35;;
68455;SDS011;55437;55.046;38.838;2023-11-18T09:44:23;14.23;;;5.57;;
68455;SDS011;55437;55.046;38.838;2023-11-18T09:46:56;12.52;;;4.30;;
68455;SDS011;55437;55.046;38.838;2023-11-18T09:49:31;11.60;;;4.38;;
68455;SDS011;55437;55.046;38.838;2023-11-18T09:52:05;13.73;;;4.80;;
68455;SDS011;55437;55.046;38.838;2023-11-18T09:57:33;11.95;;;4.30;;
68455;SDS011;55437;55.046;38.838;2023-11-18T10:00:05;12.25;;;6.03;;
68455;SDS011;55437;55.046;38.838;2023-11-18T10:02:46;11.32;;;3.47;;
68455;SDS011;55437;55.046;38.838;2023-11-18T10:05:17;12.90;;;3.95;;
68455;SDS011;55437;55.046;38.838;2023-11-18T10:07:47;12.52;;;3.70;;
68455;SDS011;55437;55.046;38.838;2023-11-18T10:10:15;11.02;;;4.25;;
68455;SDS011;55437;55.046;38.838;2023-11-18T10:12:44;13.43;;;4.43;;
68455;SDS011;55437;55.046;38.838;2023-11-18T10:15:13;13.52;;;4.15;;
68455;SDS011;55437;55.046;38.838;2023-11-18T10:17:42;10.35;;;4.50;;
68455;SDS011;55437;55.046;38.838;2023-11-18T10:23:08;11.63;;;4.55;;
68455;SDS011;55437;55.046;38.838;2023-11-18T10:25:57;15.27;;;4.53;;
68455;SDS011;55437;55.046;38.838;2023-11-18T10:33:48;13.55;;;4.90;;
68455;SDS011;55437;55.046;38.838;2023-11-18T10:36:20;10.75;;;4.35;;
68455;SDS011;55437;55.046;38.838;2023-11-18T10:38:48;12.25;;;4.32;;
68455;SDS011;55437;55.046;38.838;2023-11-18T10:41:17;12.93;;;4.70;;
68455;SDS011;55437;55.046;38.838;2023-11-18T10:43:45;12.50;;;5.03;;
68455;SDS011;55437;55.046;38.838;2023-11-18T10:46:14;10.05;;;4.05;;
68455;SDS011;55437;55.046;38.838;2023-11-18T10:48:42;12.38;;;4.75;;
68455;SDS011;55437;55.046;38.838;2023-11-18T10:51:10;14.68;;;5.53;;
68455;SDS011;55437;55.046;38.838;2023-11-18T10:53:40;9.30;;;4.57;;
68455;SDS011;55437;55.046;38.838;2023-11-18T10:56:27;10.52;;;4.53;;
68455;SDS011;55437;55.046;38.838;2023-11-18T10:58:58;12.02;;;4.68;;
68455;SDS011;55437;55.046;38.838;2023-11-18T11:03:58;12.68;;;4.40;;
68455;SDS011;55437;55.046;38.838;2023-11-18T11:06:25;11.80;;;3.97;;
68455;SDS011;55437;55.046;38.838;2023-11-18T11:08:52;10.52;;;3.95;;
68455;SDS011;55437;55.046;38.838;2023-11-18T11:11:21;13.60;;;4.40;;
68455;SDS011;55437;55.046;38.838;2023-11-18T11:13:49;10.10;;;3.97;;
68455;SDS011;55437;55.046;38.838;2023-11-18T11:16:20;12.63;;;4.43;;
68455;SDS011;55437;55.046;38.838;2023-11-18T11:18:55;13.60;;;4.70;;
68455;SDS011;55437;55.046;38.838;2023-11-18T11:21:27;12.40;;;4.25;;
68455;SDS011;55437;55.046;38.838;2023-11-18T11:24:07;12.95;;;5.63;;
68455;SDS011;55437;55.046;38.838;2023-11-18T11:27:05;12.38;;;4.75;;
68455;SDS011;55437;55.046;38.838;2023-11-18T11:29:36;10.30;;;4.15;;
68455;SDS011;55437;55.046;38.838;2023-11-18T11:32:24;13.13;;;5.03;;
68455;SDS011;55437;55.046;38.838;2023-11-18T11:35:00;10.88;;;5.18;;
68455;SDS011;55437;55.046;38.838;2023-11-18T11:37:33;13.35;;;5.40;;
68455;SDS011;55437;55.046;38.838;2023-11-18T11:40:02;13.32;;;6.63;;
68455;SDS011;55437;55.046;38.838;2023-11-18T11:42:37;10.25;;;4.68;;
68455;SDS011;55437;55.046;38.838;2023-11-18T11:45:06;14.43;;;4.55;;
68455;SDS011;55437;55.046;38.838;2023-11-18T11:47:48;10.05;;;4.90;;
68455;SDS011;55437;55.046;38.838;2023-11-18T11:50:21;28.08;;;6.18;;
68455;SDS011;55437;55.046;38.838;2023-11-18T11:53:05;13.05;;;4.88;;
68455;SDS011;55437;55.046;38.838;2023-11-18T11:55:47;12.43;;;4.45;;
68455;SDS011;55437;55.046;38.838;2023-11-18T11:58:28;11.75;;;5.60;;
68455;SDS011;55437;55.046;38.838;2023-11-18T12:01:22;12.75;;;4.65;;
68455;SDS011;55437;55.046;38.838;2023-11-18T12:03:59;13.88;;;5.10;;
68455;SDS011;55437;55.046;38.838;2023-11-18T12:06:32;15.88;;;5.43;;
68455;SDS011;55437;55.046;38.838;2023-11-18T12:09:01;17.67;;;5.25;;
68455;SDS011;55437;55.046;38.838;2023-11-18T12:11:32;12.07;;;5.30;;
68455;SDS011;55437;55.046;38.838;2023-11-18T12:14:05;14.38;;;5.85;;
68455;SDS011;55437;55.046;38.838;2023-11-18T12:19:29;11.45;;;5.43;;
68455;SDS011;55437;55.046;38.838;2023-11-18T12:22:10;9.85;;;4.80;;
68455;SDS011;55437;55.046;38.838;2023-11-18T12:24:44;14.60;;;4.85;;
68455;SDS011;55437;55.046;38.838;2023-11-18T12:28:05;13.65;;;5.63;;
68455;SDS011;55437;55.046;38.838;2023-11-18T12:41:39;11.57;;;4.93;;
68455;SDS011;55437;55.046;38.838;2023-11-18T12:46:52;9.50;;;4.85;;
68455;SDS011;55437;55.046;38.838;2023-11-18T12:49:22;9.63;;;3.83;;
68455;SDS011;55437;55.046;38.838;2023-11-18T12:51:51;12.27;;;4.45;;
68455;SDS011;55437;55.046;38.838;2023-11-18T12:54:25;13.20;;;5.38;;
68455;SDS011;55437;55.046;38.838;2023-11-18T12:56:55;15.73;;;4.70;;
68455;SDS011;55437;55.046;38.838;2023-11-18T12:59:21;13.18;;;4.72;;
68455;SDS011;55437;55.046;38.838;2023-11-18T13:01:52;13.77;;;4.55;;
68455;SDS011;55437;55.046;38.838;2023-11-18T13:04:29;16.45;;;4.97;;
68455;SDS011;55437;55.046;38.838;2023-11-18T13:06:59;15.80;;;4.78;;
68455;SDS011;55437;55.046;38.838;2023-11-18T13:09:27;20.27;;;5.18;;
68455;SDS011;55437;55.046;38.838;2023-11-18T13:12:01;11.32;;;4.78;;
68455;SDS011;55437;55.046;38.838;2023-11-18T13:14:31;25.13;;;4.82;;
68455;SDS011;55437;55.046;38.838;2023-11-18T13:17:08;14.18;;;5.10;;
68455;SDS011;55437;55.046;38.838;2023-11-18T13:19:37;23.02;;;5.20;;
68455;SDS011;55437;55.046;38.838;2023-11-18T13:22:05;20.45;;;5.80;;
68455;SDS011;55437;55.046;38.838;2023-11-18T13:24:35;15.20;;;6.00;;
68455;SDS011;55437;55.046;38.838;2023-11-18T13:27:02;14.10;;;6.03;;
68455;SDS011;55437;55.046;38.838;2023-11-18T13:29:30;24.90;;;6.63;;
68455;SDS011;55437;55.046;38.838;2023-11-18T13:31:57;23.10;;;7.40;;
68455;SDS011;55437;55.046;38.838;2023-11-18T13:34:49;22.38;;;7.43;;
68455;SDS011;55437;55.046;38.838;2023-11-18T13:37:17;19.48;;;7.20;;
68455;SDS011;55437;55.046;38.838;2023-11-18T13:39:54;31.95;;;9.15;;
68455;SDS011;55437;55.046;38.838;2023-11-18T13:42:21;26.77;;;7.55;;
68455;SDS011;55437;55.046;38.838;2023-11-18T13:44:58;20.08;;;7.28;;
68455;SDS011;55437;55.046;38.838;2023-11-18T13:47:28;20.00;;;8.13;;
68455;SDS011;55437;55.046;38.838;2023-11-18T13:49:54;24.92;;;8.55;;
68455;SDS011;55437;55.046;38.838;2023-11-18T13:52:20;26.25;;;8.40;;
68455;SDS011;55437;55.046;38.838;2023-11-18T13:54:47;21.27;;;8.43;;
68455;SDS011;55437;55.046;38.838;2023-11-18T13:57:15;23.70;;;8.48;;
68455;SDS011;55437;55.046;38.838;2023-11-18T13:59:42;18.40;;;8.48;;
68455;SDS011;55437;55.046;38.838;2023-11-18T14:02:10;19.40;;;9.27;;
68455;SDS011;55437;55.046;38.838;2023-11-18T14:04:39;19.65;;;9.18;;
68455;SDS011;55437;55.046;38.838;2023-11-18T14:07:07;28.35;;;10.18;;
68455;SDS011;55437;55.046;38.838;2023-11-18T14:09:35;32.30;;;11.32;;
68455;SDS011;55437;55.046;38.838;2023-11-18T14:12:05;28.58;;;13.50;;
68455;SDS011;55437;55.046;38.838;2023-11-18T14:14:32;34.60;;;13.48;;
68455;SDS011;55437;55.046;38.838;2023-11-18T14:17:01;39.33;;;17.15;;
68455;SDS011;55437;55.046;38.838;2023-11-18T14:19:27;24.65;;;9.50;;
68455;SDS011;55437;55.046;38.838;2023-11-18T14:21:56;21.98;;;9.43;;
68455;SDS011;55437;55.046;38.838;2023-11-18T14:24:23;31.45;;;8.60;;
68455;SDS011;55437;55.046;38.838;2023-11-18T14:26:53;26.90;;;9.60;;
68455;SDS011;55437;55.046;38.838;2023-11-18T14:29:20;26.45;;;10.13;;
68455;SDS011;55437;55.046;38.838;2023-11-18T14:31:46;22.48;;;9.35;;
68455;SDS011;55437;55.046;38.838;2023-11-18T14:34:14;23.60;;;9.45;;
68455;SDS011;55437;55.046;38.838;2023-11-18T14:36:40;30.02;;;9.48;;
68455;SDS011;55437;55.046;38.838;2023-11-18T14:39:11;25.17;;;8.77;;
68455;SDS011;55437;55.046;38.838;2023-11-18T14:41:44;40.70;;;10.02;;
68455;SDS011;55437;55.046;38.838;2023-11-18T14:44:11;29.60;;;10.25;;
68455;SDS011;55437;55.046;38.838;2023-11-18T14:46:37;26.35;;;10.23;;
68455;SDS011;55437;55.046;38.838;2023-11-18T14:49:08;28.95;;;10.82;;
68455;SDS011;55437;55.046;38.838;2023-11-18T14:51:35;26.85;;;10.20;;
68455;SDS011;55437;55.046;38.838;2023-11-18T14:54:03;27.52;;;10.85;;
68455;SDS011;55437;55.046;38.838;2023-11-18T14:56:31;26.42;;;10.70;;
68455;SDS011;55437;55.046;38.838;2023-11-18T14:58:57;28.77;;;10.23;;
68455;SDS011;55437;55.046;38.838;2023-11-18T15:01:23;29.40;;;11.13;;
68455;SDS011;55437;55.046;38.838;2023-11-18T15:03:50;30.08;;;13.25;;
68455;SDS011;55437;55.046;38.838;2023-11-18T15:06:23;41.42;;;13.73;;
68455;SDS011;55437;55.046;38.838;2023-11-18T15:08:50;39.15;;;13.23;;
68455;SDS011;55437;55.046;38.838;2023-11-18T15:11:22;43.80;;;14.88;;
68455;SDS011;55437;55.046;38.838;2023-11-18T15:13:50;34.33;;;14.68;;
68455;SDS011;55437;55.046;38.838;2023-11-18T15:16:19;28.77;;;13.65;;